sensor_id;sensor_type;location;lat;lon;timestamp;pressure;altitude;pressure_sealevel;temperature;humidity
61119;BME280;51448;51.660;5.824;2023-11-21T00:00:16;100933.69;;;7.70;100.00
61119;BME280;51448;51.660;5.824;2023-11-21T00:02:44;100941.53;;;7.71;100.00
61119;BME280;51448;51.660;5.824;2023-11-21T00:05:13;100946.75;;;7.71;100.00
61119;BME280;51448;51.660;5.824;2023-11-21T00:07:42;100944.09;;;7.73;100.00
61119;BME280;51448;51.660;5.824;2023-11-21T00:10:11;100941.47;;;7.73;100.00
61119;BME280;51448;51.660;5.824;2023-11-21T00:12:43;100950.22;;;7.73;100.00
61119;BME280;51448;51.660;5.824;2023-11-21T00:15:10;100949.34;;;7.73;100.00
61119;BME280;51448;51.660;5.824;2023-11-21T00:17:38;100949.31;;;7.74;100.00
61119;BME280;51448;51.660;5.824;2023-11-21T00:20:07;100946.72;;;7.73;100.00
61119;BME280;51448;51.660;5.824;2023-11-21T00:22:35;100944.13;;;7.71;100.00
61119;BME280;51448;51.660;5.824;2023-11-21T00:25:04;100953.72;;;7.72;100.00
61119;BME280;51448;51.660;5.824;2023-11-21T00:27:31;100946.78;;;7.70;100.00
61119;BME280;51448;51.660;5.824;2023-11-21T00:29:59;100957.28;;;7.66;100.00
61119;BME280;51448;51.660;5.824;2023-11-21T00:32:27;100955.56;;;7.65;100.00
61119;BME280;51448;51.660;5.824;2023-11-21T00:34:54;100943.41;;;7.61;100.00
61119;BME280;51448;51.660;5.824;2023-11-21T00:37:23;100952.19;;;7.57;100.00
61119;BME280;51448;51.660;5.824;2023-11-21T00:39:52;100960.09;;;7.53;100.00
61119;BME280;51448;51.660;5.824;2023-11-21T00:42:21;100951.41;;;7.49;100.00
61119;BME280;51448;51.660;5.824;2023-11-21T00:44:51;100954.97;;;7.43;100.00
61119;BME280;51448;51.660;5.824;2023-11-21T00:47:18;100963.75;;;7.41;100.00
61119;BME280;51448;51.660;5.824;2023-11-21T00:49:46;100953.34;;;7.36;100.00
61119;BME280;51448;51.660;5.824;2023-11-21T00:52:15;100960.34;;;7.34;100.00
61119;BME280;51448;51.660;5.824;2023-11-21T00:54:43;100957.75;;;7.33;100.00
61119;BME280;51448;51.660;5.824;2023-11-21T00:57:12;100957.75;;;7.30;100.00
61119;BME280;51448;51.660;5.824;2023-11-21T00:59:39;100962.16;;;7.28;100.00
61119;BME280;51448;51.660;5.824;2023-11-21T01:02:07;100963.91;;;7.25;100.00
61119;BME280;51448;51.660;5.824;2023-11-21T01:04:38;100971.81;;;7.24;100.00
61119;BME280;51448;51.660;5.824;2023-11-21T01:07:07;100972.69;;;7.23;100.00
61119;BME280;51448;51.660;5.824;2023-11-21T01:09:35;100977.97;;;7.20;100.00
61119;BME280;51448;51.660;5.824;2023-11-21T01:12:03;100982.28;;;7.21;100.00
61119;BME280;51448;51.660;5.824;2023-11-21T01:14:31;100986.69;;;7.19;100.00
61119;BME280;51448;51.660;5.824;2023-11-21T01:16:59;100983.22;;;7.15;100.00
61119;BME280;51448;51.660;5.824;2023-11-21T01:19:27;100993.69;;;7.17;100.00
61119;BME280;51448;51.660;5.824;2023-11-21T01:21:58;100991.06;;;7.17;100.00
61119;BME280;51448;51.660;5.824;2023-11-21T01:24:26;101000.69;;;7.15;100.00
61119;BME280;51448;51.660;5.824;2023-11-21T01:26:53;100998.97;;;7.14;100.00
61119;BME280;51448;51.660;5.824;2023-11-21T01:29:21;101003.31;;;7.13;100.00
61119;BME280;51448;51.660;5.824;2023-11-21T01:31:49;101015.50;;;7.14;100.00
61119;BME280;51448;51.660;5.824;2023-11-21T01:34:16;101013.75;;;7.15;100.00
61119;BME280;51448;51.660;5.824;2023-11-21T01:36:46;101005.91;;;7.15;100.00
61119;BME280;51448;51.660;5.824;2023-11-21T01:39:14;101018.13;;;7.16;100.00
61119;BME280;51448;51.660;5.824;2023-11-21T01:41:43;101018.97;;;7.16;100.00
61119;BME280;51448;51.660;5.824;2023-11-21T01:44:11;101021.59;;;7.16;100.00
61119;BME280;51448;51.660;5.824;2023-11-21T01:46:40;101018.97;;;7.16;100.00
61119;BME280;51448;51.660;5.824;2023-11-21T01:49:09;101024.19;;;7.18;100.00
61119;BME280;51448;51.660;5.824;2023-11-21T01:51:43;101020.69;;;7.19;100.00
61119;BME280;51448;51.660;5.824;2023-11-21T01:54:15;101018.94;;;7.19;100.00
61119;BME280;51448;51.660;5.824;2023-11-21T01:56:46;101023.31;;;7.19;100.00
61119;BME280;51448;51.660;5.824;2023-11-21T01:59:18;101018.06;;;7.20;100.00
61119;BME280;51448;51.660;5.824;2023-11-21T02:01:51;101020.69;;;7.20;100.00
61119;BME280;51448;51.660;5.824;2023-11-21T02:04:19;101019.78;;;7.21;100.00
61119;BME280;51448;51.660;5.824;2023-11-21T02:06:48;101011.06;;;7.24;100.00
61119;BME280;51448;51.660;5.824;2023-11-21T02:09:24;101013.63;;;7.25;100.00
61119;BME280;51448;51.660;5.824;2023-11-21T02:11:54;101017.13;;;7.26;100.00
61119;BME280;51448;51.660;5.824;2023-11-21T02:14:28;101020.59;;;7.28;100.00
61119;BME280;51448;51.660;5.824;2023-11-21T02:16:56;101026.63;;;7.32;100.00
61119;BME280;51448;51.660;5.824;2023-11-21T02:19:25;101027.53;;;7.32;100.00
61119;BME280;51448;51.660;5.824;2023-11-21T02:21:53;101041.47;;;7.33;100.00
61119;BME280;51448;51.660;5.824;2023-11-21T02:24:22;101037.94;;;7.37;100.00
61119;BME280;51448;51.660;5.824;2023-11-21T02:26:50;101044.88;;;7.38;100.00
61119;BME280;51448;51.660;5.824;2023-11-21T02:29:19;101037.94;;;7.37;100.00
61119;BME280;51448;51.660;5.824;2023-11-21T02:31:55;101044.94;;;7.36;100.00
61119;BME280;51448;51.660;5.824;2023-11-21T02:34:23;101038.81;;;7.36;100.00
61119;BME280;51448;51.660;5.824;2023-11-21T02:36:52;101040.56;;;7.35;100.00
61119;BME280;51448;51.660;5.824;2023-11-21T02:39:21;101043.19;;;7.35;100.00
61119;BME280;51448;51.660;5.824;2023-11-21T02:41:52;101044.94;;;7.35;100.00
61119;BME280;51448;51.660;5.824;2023-11-21T02:44:20;101048.41;;;7.35;100.00
61119;BME280;51448;51.660;5.824;2023-11-21T02:46:48;101052.78;;;7.35;100.00
61119;BME280;51448;51.660;5.824;2023-11-21T02:49:15;101051.00;;;7.37;100.00
61119;BME280;51448;51.660;5.824;2023-11-21T02:51:43;101054.50;;;7.36;100.00
61119;BME280;51448;51.660;5.824;2023-11-21T02:54:11;101053.63;;;7.37;100.00
61119;BME280;51448;51.660;5.824;2023-11-21T02:56:39;101055.34;;;7.38;100.00
61119;BME280;51448;51.660;5.824;2023-11-21T02:59:07;101059.72;;;7.36;100.00
61119;BME280;51448;51.660;5.824;2023-11-21T03:01:35;101056.25;;;7.35;100.00
61119;BME280;51448;51.660;5.824;2023-11-21T03:04:03;101064.13;;;7.34;100.00
61119;BME280;51448;51.660;5.824;2023-11-21T03:06:33;101055.41;;;7.32;100.00
61119;BME280;51448;51.660;5.824;2023-11-21T03:09:01;101054.56;;;7.31;100.00
61119;BME280;51448;51.660;5.824;2023-11-21T03:11:28;101058.03;;;7.32;100.00
61119;BME280;51448;51.660;5.824;2023-11-21T03:13:56;101061.56;;;7.31;100.00
61119;BME280;51448;51.660;5.824;2023-11-21T03:16:23;101064.16;;;7.31;100.00
61119;BME280;51448;51.660;5.824;2023-11-21T03:18:51;101063.31;;;7.30;100.00
61119;BME280;51448;51.660;5.824;2023-11-21T03:21:20;101064.16;;;7.31;100.00
61119;BME280;51448;51.660;5.824;2023-11-21T03:23:47;101069.41;;;7.31;100.00
61119;BME280;51448;51.660;5.824;2023-11-21T03:26:15;101071.13;;;7.32;100.00
61119;BME280;51448;51.660;5.824;2023-11-21T03:28:44;101067.63;;;7.33;100.00
61119;BME280;51448;51.660;5.824;2023-11-21T03:31:11;101065.88;;;7.35;100.00
61119;BME280;51448;51.660;5.824;2023-11-21T03:33:39;101069.34;;;7.35;100.00
61119;BME280;51448;51.660;5.824;2023-11-21T03:36:07;101067.59;;;7.36;100.00
61119;BME280;51448;51.660;5.824;2023-11-21T03:38:35;101069.34;;;7.37;100.00
61119;BME280;51448;51.660;5.824;2023-11-21T03:41:03;101076.28;;;7.39;100.00
61119;BME280;51448;51.660;5.824;2023-11-21T03:43:33;101073.66;;;7.39;100.00
61119;BME280;51448;51.660;5.824;2023-11-21T03:46:00;101081.50;;;7.39;100.00
61119;BME280;51448;51.660;5.824;2023-11-21T03:48:28;101073.66;;;7.38;100.00
61119;BME280;51448;51.660;5.824;2023-11-21T03:50:56;101077.16;;;7.38;100.00
61119;BME280;51448;51.660;5.824;2023-11-21T03:53:24;101071.06;;;7.38;100.00
61119;BME280;51448;51.660;5.824;2023-11-21T03:55:51;101078.03;;;7.37;100.00
61119;BME280;51448;51.660;5.824;2023-11-21T03:58:19;101074.56;;;7.37;100.00
61119;BME280;51448;51.660;5.824;2023-11-21T04:00:47;101082.41;;;7.37;100.00
61119;BME280;51448;51.660;5.824;2023-11-21T04:03:16;101072.81;;;7.36;100.00
61119;BME280;51448;51.660;5.824;2023-11-21T04:05:44;101078.09;;;7.34;100.00
61119;BME280;51448;51.660;5.824;2023-11-21T04:08:13;101079.81;;;7.34;100.00
61119;BME280;51448;51.660;5.824;2023-11-21T04:10:40;101091.19;;;7.33;100.00
61119;BME280;51448;51.660;5.824;2023-11-21T04:13:09;101094.66;;;7.32;100.00
61119;BME280;51448;51.660;5.824;2023-11-21T04:15:37;101095.56;;;7.31;100.00
61119;BME280;51448;51.660;5.824;2023-11-21T04:18:05;101094.72;;;7.30;100.00
61119;BME280;51448;51.660;5.824;2023-11-21T04:20:33;101106.94;;;7.28;100.00
61119;BME280;51448;51.660;5.824;2023-11-21T04:23:01;101107.78;;;7.29;100.00
61119;BME280;51448;51.660;5.824;2023-11-21T04:25:28;101119.13;;;7.29;100.00
61119;BME280;51448;51.660;5.824;2023-11-21T04:27:56;101133.06;;;7.31;100.00
61119;BME280;51448;51.660;5.824;2023-11-21T04:30:24;101128.69;;;7.32;100.00
61119;BME280;51448;51.660;5.824;2023-11-21T04:32:51;101124.34;;;7.29;100.00
61119;BME280;51448;51.660;5.824;2023-11-21T04:35:19;101130.44;;;7.30;100.00
61119;BME280;51448;51.660;5.824;2023-11-21T04:37:47;101133.97;;;7.29;100.00
61119;BME280;51448;51.660;5.824;2023-11-21T04:40:15;101137.44;;;7.31;100.00
61119;BME280;51448;51.660;5.824;2023-11-21T04:42:42;101139.19;;;7.29;100.00
61119;BME280;51448;51.660;5.824;2023-11-21T04:45:10;101138.34;;;7.25;100.00
61119;BME280;51448;51.660;5.824;2023-11-21T04:47:40;101135.72;;;7.23;100.00
61119;BME280;51448;51.660;5.824;2023-11-21T04:50:08;101140.09;;;7.24;100.00
61119;BME280;51448;51.660;5.824;2023-11-21T04:52:36;101150.56;;;7.24;100.00
61119;BME280;51448;51.660;5.824;2023-11-21T04:55:04;101147.94;;;7.24;100.00
61119;BME280;51448;51.660;5.824;2023-11-21T04:57:34;101152.31;;;7.22;100.00
61119;BME280;51448;51.660;5.824;2023-11-21T05:00:02;101152.31;;;7.22;100.00
61119;BME280;51448;51.660;5.824;2023-11-21T05:02:33;101161.94;;;7.22;100.00
61119;BME280;51448;51.660;5.824;2023-11-21T05:05:06;101173.25;;;7.22;100.00
61119;BME280;51448;51.660;5.824;2023-11-21T05:07:35;101166.25;;;7.24;100.00
61119;BME280;51448;51.660;5.824;2023-11-21T05:10:05;101170.59;;;7.25;100.00
61119;BME280;51448;51.660;5.824;2023-11-21T05:12:39;101174.06;;;7.28;100.00
61119;BME280;51448;51.660;5.824;2023-11-21T05:15:09;101168.84;;;7.29;100.00
61119;BME280;51448;51.660;5.824;2023-11-21T05:17:41;101172.31;;;7.31;100.00
61119;BME280;51448;51.660;5.824;2023-11-21T05:20:13;101173.16;;;7.32;100.00
61119;BME280;51448;51.660;5.824;2023-11-21T05:22:45;101177.53;;;7.31;100.00
61119;BME280;51448;51.660;5.824;2023-11-21T05:25:14;101178.41;;;7.32;100.00
61119;BME280;51448;51.660;5.824;2023-11-21T05:27:42;101185.38;;;7.31;100.00
61119;BME280;51448;51.660;5.824;2023-11-21T05:30:10;101174.91;;;7.33;100.00
61119;BME280;51448;51.660;5.824;2023-11-21T05:32:40;101188.84;;;7.32;100.00
61119;BME280;51448;51.660;5.824;2023-11-21T05:35:11;101189.75;;;7.31;100.00
61119;BME280;51448;51.660;5.824;2023-11-21T05:37:45;101190.66;;;7.28;100.00
61119;BME280;51448;51.660;5.824;2023-11-21T05:40:14;101191.53;;;7.29;100.00
61119;BME280;51448;51.660;5.824;2023-11-21T05:42:42;101194.13;;;7.29;100.00
61119;BME280;51448;51.660;5.824;2023-11-21T05:45:10;101188.00;;;7.30;100.00
61119;BME280;51448;51.660;5.824;2023-11-21T05:47:45;101197.63;;;7.29;100.00
61119;BME280;51448;51.660;5.824;2023-11-21T05:50:16;101196.75;;;7.29;100.00
61119;BME280;51448;51.660;5.824;2023-11-21T05:52:45;101196.75;;;7.27;100.00
61119;BME280;51448;51.660;5.824;2023-11-21T05:55:15;101213.34;;;7.26;100.00
61119;BME280;51448;51.660;5.824;2023-11-21T05:57:43;101215.06;;;7.27;100.00
61119;BME280;51448;51.660;5.824;2023-11-21T06:00:13;101221.19;;;7.26;100.00
61119;BME280;51448;51.660;5.824;2023-11-21T06:02:42;101224.69;;;7.27;100.00
61119;BME280;51448;51.660;5.824;2023-11-21T06:05:09;101227.28;;;7.27;100.00
61119;BME280;51448;51.660;5.824;2023-11-21T06:07:38;101235.16;;;7.27;100.00
61119;BME280;51448;51.660;5.824;2023-11-21T06:10:08;101229.06;;;7.24;100.00
61119;BME280;51448;51.660;5.824;2023-11-21T06:12:38;101236.00;;;7.25;100.00
61119;BME280;51448;51.660;5.824;2023-11-21T06:15:10;101234.28;;;7.26;100.00
61119;BME280;51448;51.660;5.824;2023-11-21T06:17:42;101233.38;;;7.25;100.00
61119;BME280;51448;51.660;5.824;2023-11-21T06:20:10;101242.13;;;7.24;100.00
61119;BME280;51448;51.660;5.824;2023-11-21T06:22:42;101236.03;;;7.24;100.00
61119;BME280;51448;51.660;5.824;2023-11-21T06:25:12;101240.38;;;7.25;100.00
61119;BME280;51448;51.660;5.824;2023-11-21T06:27:45;101250.84;;;7.27;100.00
61119;BME280;51448;51.660;5.824;2023-11-21T06:30:21;101251.69;;;7.27;100.00
61119;BME280;51448;51.660;5.824;2023-11-21T06:32:49;101246.47;;;7.25;100.00
61119;BME280;51448;51.660;5.824;2023-11-21T06:35:18;101249.97;;;7.24;100.00
61119;BME280;51448;51.660;5.824;2023-11-21T06:37:47;101248.22;;;7.23;100.00
61119;BME280;51448;51.660;5.824;2023-11-21T06:40:18;101254.34;;;7.24;100.00
61119;BME280;51448;51.660;5.824;2023-11-21T06:42:47;101254.31;;;7.25;100.00
61119;BME280;51448;51.660;5.824;2023-11-21T06:45:16;101265.69;;;7.26;100.00
61119;BME280;51448;51.660;5.824;2023-11-21T06:47:44;101266.53;;;7.27;100.00
61119;BME280;51448;51.660;5.824;2023-11-21T06:50:13;101263.91;;;7.28;100.00
61119;BME280;51448;51.660;5.824;2023-11-21T06:52:41;101268.25;;;7.28;100.00
61119;BME280;51448;51.660;5.824;2023-11-21T06:55:15;101268.25;;;7.28;100.00
61119;BME280;51448;51.660;5.824;2023-11-21T06:57:44;101263.03;;;7.28;100.00
61119;BME280;51448;51.660;5.824;2023-11-21T07:00:13;101269.16;;;7.27;100.00
61119;BME280;51448;51.660;5.824;2023-11-21T07:02:45;101273.53;;;7.26;100.00
61119;BME280;51448;51.660;5.824;2023-11-21T07:05:12;101277.00;;;7.27;100.00
61119;BME280;51448;51.660;5.824;2023-11-21T07:07:41;101284.84;;;7.27;100.00
61119;BME280;51448;51.660;5.824;2023-11-21T07:10:09;101287.47;;;7.27;100.00
61119;BME280;51448;51.660;5.824;2023-11-21T07:12:36;101284.84;;;7.28;100.00
61119;BME280;51448;51.660;5.824;2023-11-21T07:15:04;101292.66;;;7.30;100.00
61119;BME280;51448;51.660;5.824;2023-11-21T07:17:41;101291.81;;;7.31;100.00
61119;BME280;51448;51.660;5.824;2023-11-21T07:20:20;101299.66;;;7.32;100.00
61119;BME280;51448;51.660;5.824;2023-11-21T07:22:48;101306.59;;;7.33;100.00
61119;BME280;51448;51.660;5.824;2023-11-21T07:25:16;101317.06;;;7.35;100.00
61119;BME280;51448;51.660;5.824;2023-11-21T07:27:44;101318.78;;;7.36;100.00
61119;BME280;51448;51.660;5.824;2023-11-21T07:30:12;101327.50;;;7.38;100.00
61119;BME280;51448;51.660;5.824;2023-11-21T07:32:43;101340.59;;;7.41;100.00
61119;BME280;51448;51.660;5.824;2023-11-21T07:35:16;101342.28;;;7.43;100.00
61119;BME280;51448;51.660;5.824;2023-11-21T07:37:44;101340.53;;;7.45;100.00
61119;BME280;51448;51.660;5.824;2023-11-21T07:40:12;101338.78;;;7.46;100.00
61119;BME280;51448;51.660;5.824;2023-11-21T07:42:39;101340.53;;;7.49;100.00
61119;BME280;51448;51.660;5.824;2023-11-21T07:45:07;101336.16;;;7.49;100.00
61119;BME280;51448;51.660;5.824;2023-11-21T07:47:36;101349.25;;;7.51;100.00
61119;BME280;51448;51.660;5.824;2023-11-21T07:50:04;101343.13;;;7.52;100.00
61119;BME280;51448;51.660;5.824;2023-11-21T07:52:32;101355.31;;;7.54;100.00
61119;BME280;51448;51.660;5.824;2023-11-21T07:55:07;101355.28;;;7.57;100.00
61119;BME280;51448;51.660;5.824;2023-11-21T07:58:04;101350.03;;;7.60;100.00
61119;BME280;51448;51.660;5.824;2023-11-21T08:00:32;101360.50;;;7.62;100.00
61119;BME280;51448;51.660;5.824;2023-11-21T08:03:05;101365.72;;;7.63;100.00
61119;BME280;51448;51.660;5.824;2023-11-21T08:05:40;101370.97;;;7.63;100.00
61119;BME280;51448;51.660;5.824;2023-11-21T08:08:08;101376.19;;;7.63;100.00
61119;BME280;51448;51.660;5.824;2023-11-21T08:10:36;101366.59;;;7.64;100.00
61119;BME280;51448;51.660;5.824;2023-11-21T08:13:05;101368.28;;;7.68;100.00
61119;BME280;51448;51.660;5.824;2023-11-21T08:15:33;101380.53;;;7.69;100.00
61119;BME280;51448;51.660;5.824;2023-11-21T08:18:01;101375.25;;;7.72;100.00
61119;BME280;51448;51.660;5.824;2023-11-21T08:20:29;101383.09;;;7.74;100.00
61119;BME280;51448;51.660;5.824;2023-11-21T08:22:57;101380.47;;;7.75;100.00
61119;BME280;51448;51.660;5.824;2023-11-21T08:25:25;101391.81;;;7.77;100.00
61119;BME280;51448;51.660;5.824;2023-11-21T08:27:53;101390.00;;;7.81;100.00
61119;BME280;51448;51.660;5.824;2023-11-21T08:30:21;101388.28;;;7.81;100.00
61119;BME280;51448;51.660;5.824;2023-11-21T08:32:51;101398.72;;;7.86;100.00
61119;BME280;51448;51.660;5.824;2023-11-21T08:35:21;101393.44;;;7.89;100.00
61119;BME280;51448;51.660;5.824;2023-11-21T08:37:51;101400.38;;;7.93;100.00
61119;BME280;51448;51.660;5.824;2023-11-21T08:40:22;101403.91;;;7.94;100.00
61119;BME280;51448;51.660;5.824;2023-11-21T08:42:51;101409.09;;;7.97;100.00
61119;BME280;51448;51.660;5.824;2023-11-21T08:45:22;101414.34;;;7.98;100.00
61119;BME280;51448;51.660;5.824;2023-11-21T08:47:50;101429.16;;;8.01;100.00
61119;BME280;51448;51.660;5.824;2023-11-21T08:50:17;101431.78;;;8.02;100.00
61119;BME280;51448;51.660;5.824;2023-11-21T08:52:46;101428.25;;;8.06;100.00
61119;BME280;51448;51.660;5.824;2023-11-21T08:55:15;101434.34;;;8.09;100.00
61119;BME280;51448;51.660;5.824;2023-11-21T08:57:44;101443.91;;;8.13;100.00
61119;BME280;51448;51.660;5.824;2023-11-21T09:00:12;101439.53;;;8.16;100.00
61119;BME280;51448;51.660;5.824;2023-11-21T09:02:43;101435.09;;;8.20;100.00
61119;BME280;51448;51.660;5.824;2023-11-21T09:05:13;101442.91;;;8.26;100.00
61119;BME280;51448;51.660;5.824;2023-11-21T09:07:42;101441.13;;;8.33;100.00
61119;BME280;51448;51.660;5.824;2023-11-21T09:10:17;101449.81;;;8.38;100.00
61119;BME280;51448;51.660;5.824;2023-11-21T09:12:45;101447.16;;;8.42;100.00
61119;BME280;51448;51.660;5.824;2023-11-21T09:15:12;101455.00;;;8.47;100.00
61119;BME280;51448;51.660;5.824;2023-11-21T09:17:40;101449.72;;;8.49;100.00
61119;BME280;51448;51.660;5.824;2023-11-21T09:20:09;101454.94;;;8.53;100.00
61119;BME280;51448;51.660;5.824;2023-11-21T09:22:38;101458.38;;;8.57;100.00
61119;BME280;51448;51.660;5.824;2023-11-21T09:25:06;101459.22;;;8.62;100.00
61119;BME280;51448;51.660;5.824;2023-11-21T09:27:36;101458.31;;;8.66;100.00
61119;BME280;51448;51.660;5.824;2023-11-21T09:30:05;101460.88;;;8.71;100.00
61119;BME280;51448;51.660;5.824;2023-11-21T09:32:40;101461.72;;;8.74;100.00
61119;BME280;51448;51.660;5.824;2023-11-21T09:35:09;101469.53;;;8.77;100.00
61119;BME280;51448;51.660;5.824;2023-11-21T09:37:36;101467.75;;;8.82;100.00
61119;BME280;51448;51.660;5.824;2023-11-21T09:40:10;101472.94;;;8.90;100.00
61119;BME280;51448;51.660;5.824;2023-11-21T09:42:57;101475.50;;;8.96;100.00
61119;BME280;51448;51.660;5.824;2023-11-21T09:45:32;101485.03;;;9.02;100.00
61119;BME280;51448;51.660;5.824;2023-11-21T09:48:02;101475.38;;;9.05;100.00
61119;BME280;51448;51.660;5.824;2023-11-21T09:50:32;101482.31;;;9.10;100.00
61119;BME280;51448;51.660;5.824;2023-11-21T09:53:18;101490.19;;;9.11;100.00
61119;BME280;51448;51.660;5.824;2023-11-21T09:55:54;101502.38;;;9.14;100.00
61119;BME280;51448;51.660;5.824;2023-11-21T09:58:22;101508.50;;;9.14;100.00
61119;BME280;51448;51.660;5.824;2023-11-21T10:00:55;101509.41;;;9.13;100.00
61119;BME280;51448;51.660;5.824;2023-11-21T10:03:26;101510.31;;;9.09;100.00
61119;BME280;51448;51.660;5.824;2023-11-21T10:05:56;101519.97;;;9.05;100.00
61119;BME280;51448;51.660;5.824;2023-11-21T10:08:28;101523.50;;;9.04;100.00
61119;BME280;51448;51.660;5.824;2023-11-21T10:11:17;101516.50;;;9.05;100.00
61119;BME280;51448;51.660;5.824;2023-11-21T10:13:49;101522.59;;;9.09;100.00
61119;BME280;51448;51.660;5.824;2023-11-21T10:16:19;101525.16;;;9.13;100.00
61119;BME280;51448;51.660;5.824;2023-11-21T10:18:52;101527.69;;;9.19;100.00
61119;BME280;51448;51.660;5.824;2023-11-21T10:21:40;101532.03;;;9.23;100.00
61119;BME280;51448;51.660;5.824;2023-11-21T10:24:08;101538.06;;;9.32;100.00
61119;BME280;51448;51.660;5.824;2023-11-21T10:26:36;101534.50;;;9.36;100.00
61119;BME280;51448;51.660;5.824;2023-11-21T10:29:19;101539.69;;;9.40;100.00
61119;BME280;51448;51.660;5.824;2023-11-21T10:31:52;101540.53;;;9.45;100.00
61119;BME280;51448;51.660;5.824;2023-11-21T10:34:22;101550.97;;;9.50;100.00
61119;BME280;51448;51.660;5.824;2023-11-21T10:36:50;101554.47;;;9.51;100.00
61119;BME280;51448;51.660;5.824;2023-11-21T10:39:19;101551.84;;;9.49;100.00
61119;BME280;51448;51.660;5.824;2023-11-21T10:41:50;101558.88;;;9.49;100.00
61119;BME280;51448;51.660;5.824;2023-11-21T10:44:18;101557.16;;;9.46;100.00
61119;BME280;51448;51.660;5.824;2023-11-21T10:46:53;101553.66;;;9.45;100.00
61119;BME280;51448;51.660;5.824;2023-11-21T10:49:25;101554.59;;;9.41;100.00
61119;BME280;51448;51.660;5.824;2023-11-21T10:51:57;101555.53;;;9.36;100.00
61119;BME280;51448;51.660;5.824;2023-11-21T10:54:25;101555.53;;;9.33;100.00
61119;BME280;51448;51.660;5.824;2023-11-21T10:56:57;101562.53;;;9.34;100.00
61119;BME280;51448;51.660;5.824;2023-11-21T10:59:29;101552.88;;;9.36;100.00
61119;BME280;51448;51.660;5.824;2023-11-21T11:01:58;101545.88;;;9.38;100.00
61119;BME280;51448;51.660;5.824;2023-11-21T11:04:30;101546.66;;;9.44;100.00
61119;BME280;51448;51.660;5.824;2023-11-21T11:07:02;101549.19;;;9.54;100.00
61119;BME280;51448;51.660;5.824;2023-11-21T11:09:33;101548.22;;;9.61;100.00
61119;BME280;51448;51.660;5.824;2023-11-21T11:12:04;101547.22;;;9.70;100.00
61119;BME280;51448;51.660;5.824;2023-11-21T11:14:32;101564.59;;;9.80;100.00
61119;BME280;51448;51.660;5.824;2023-11-21T11:17:02;101558.44;;;9.82;100.00
61119;BME280;51448;51.660;5.824;2023-11-21T11:19:33;101565.44;;;9.82;100.00
61119;BME280;51448;51.660;5.824;2023-11-21T11:28:31;101580.50;;;9.67;100.00
61119;BME280;51448;51.660;5.824;2023-11-21T11:34:35;101581.34;;;9.70;100.00
61119;BME280;51448;51.660;5.824;2023-11-21T11:37:11;101583.06;;;9.74;100.00
61119;BME280;51448;51.660;5.824;2023-11-21T11:39:41;101574.22;;;9.81;100.00
61119;BME280;51448;51.660;5.824;2023-11-21T11:42:15;101574.09;;;9.90;100.00
61119;BME280;51448;51.660;5.824;2023-11-21T11:50:08;101607.28;;;9.99;100.00
61119;BME280;51448;51.660;5.824;2023-11-21T11:52:43;101609.16;;;9.89;100.00
61119;BME280;51448;51.660;5.824;2023-11-21T11:55:17;101616.28;;;9.78;100.00
61119;BME280;51448;51.660;5.824;2023-11-21T11:57:48;101618.06;;;9.76;100.00
61119;BME280;51448;51.660;5.824;2023-11-21T12:02:55;101630.31;;;9.77;100.00
61119;BME280;51448;51.660;5.824;2023-11-21T12:05:25;101626.78;;;9.78;100.00
61119;BME280;51448;51.660;5.824;2023-11-21T12:08:02;101629.47;;;9.76;100.00
61119;BME280;51448;51.660;5.824;2023-11-21T12:10:34;101639.97;;;9.76;100.00
61119;BME280;51448;51.660;5.824;2023-11-21T12:13:07;101645.22;;;9.75;100.00
61119;BME280;51448;51.660;5.824;2023-11-21T12:15:36;101637.34;;;9.75;100.00
61119;BME280;51448;51.660;5.824;2023-11-21T12:18:06;101640.84;;;9.74;100.00
61119;BME280;51448;51.660;5.824;2023-11-21T12:20:35;101647.88;;;9.75;100.00
61119;BME280;51448;51.660;5.824;2023-11-21T12:23:10;101652.28;;;9.70;100.00
61119;BME280;51448;51.660;5.824;2023-11-21T12:25:38;101650.56;;;9.65;100.00
61119;BME280;51448;51.660;5.824;2023-11-21T12:28:09;101647.06;;;9.66;100.00
61119;BME280;51448;51.660;5.824;2023-11-21T12:30:39;101646.19;;;9.67;100.00
61119;BME280;51448;51.660;5.824;2023-11-21T12:33:07;101647.06;;;9.66;100.00
61119;BME280;51448;51.660;5.824;2023-11-21T12:35:37;101652.31;;;9.68;100.00
61119;BME280;51448;51.660;5.824;2023-11-21T12:38:05;101665.41;;;9.73;100.00
61119;BME280;51448;51.660;5.824;2023-11-21T12:40:33;101661.84;;;9.75;100.00
61119;BME280;51448;51.660;5.824;2023-11-21T12:43:01;101664.47;;;9.77;100.00
61119;BME280;51448;51.660;5.824;2023-11-21T12:45:31;101673.22;;;9.76;100.00
61119;BME280;51448;51.660;5.824;2023-11-21T12:48:05;101668.88;;;9.75;100.00
61119;BME280;51448;51.660;5.824;2023-11-21T12:50:39;101666.25;;;9.75;100.00
61119;BME280;51448;51.660;5.824;2023-11-21T12:53:09;101669.81;;;9.71;100.00
61119;BME280;51448;51.660;5.824;2023-11-21T12:55:39;101670.66;;;9.70;100.00
61119;BME280;51448;51.660;5.824;2023-11-21T12:58:10;101665.41;;;9.70;100.00
61119;BME280;51448;51.660;5.824;2023-11-21T13:00:42;101669.75;;;9.74;100.00
61119;BME280;51448;51.660;5.824;2023-11-21T13:03:13;101670.59;;;9.76;100.00
61119;BME280;51448;51.660;5.824;2023-11-21T13:05:47;101673.28;;;9.74;100.00
61119;BME280;51448;51.660;5.824;2023-11-21T13:08:21;101675.91;;;9.71;100.00
61119;BME280;51448;51.660;5.824;2023-11-21T13:10:54;101670.66;;;9.73;100.00
61119;BME280;51448;51.660;5.824;2023-11-21T13:13:28;101675.00;;;9.74;100.00
61119;BME280;51448;51.660;5.824;2023-11-21T13:16:01;101674.16;;;9.72;100.00
61119;BME280;51448;51.660;5.824;2023-11-21T13:18:33;101681.22;;;9.68;100.00
61119;BME280;51448;51.660;5.824;2023-11-21T13:21:03;101681.22;;;9.65;100.00